Athens, Greece

1:07 PM EET on February 26, 2017 (GMT +0200)
SV1JST-Athina | | Change Station

Elev 290 ft 37.89 °N, 23.76 °E | Updated 1 second ago

Clear
Clear
63.1 °F
Feels Like 63.1 °F
N
5.4
Wind Variable Wind from WSW
Gusts 5.4 mph

Today
High -- | Low -- °F
--% Chance of Precip.
Yesterday
High -- | Low -- °F
Precip. -- in
Pressure 30.21 in
Visibility 6.2 miles
Clouds Few 1500 ft
Dew Point 56 °F
Humidity 78%
Rainfall 0.00 in
Snow Depth Not available.
7:00 AM 6:15 PM
Waning Crescent, 0% visible
METAR LGAV 261050Z 07005KT 030V100 9999 FEW015 16/10 Q1023 NOSIG
Pressure 30.21 in
Visibility 6.2 miles
Clouds Few 1500 ft
Dew Point 56 °F
Humidity 78%
Rainfall 0.00 in
Snow Depth Not available.
7:00 AM 6:15 PM
Waning Crescent, 0% visible
METAR LGAV 261050Z 07005KT 030V100 9999 FEW015 16/10 Q1023 NOSIG

Get Your Daily Forecast Email!

Thanks for signing up!

Be on the lookout for a verification email in your inbox.

You'll start receiving the daily forecast at 8 AM.

×

10-Day Weather Forecast

×

Almanac

Astronomy

Feb. 26, 2017 Rise Set
Actual Time
Civil Twilight
Nautical Twilight
Astronomical Twilight
Moon
Length of Visible Light
Length of Day
Tomorrow will be .
, % of the Moon is Illuminated

Today's Extremes

Country Highs Country Lows

Community

WunderPhotos

Upload Photos

1,962,540 photos uploaded!

WunderBlog® & News

Nearby

Air Quality

  Air Quality AQ Index Pollutant
Not available.

Snow Depth

Station Depth Elevation

Earthquake Activity

City Distance Mag. Time & Date
Minimum magnitude displayed is 2.5.

Coastal Water Temperatures

Place Temperature

Stations

Nearby Weather Stations

Station Location Temp. Windchill Dew Point Humidity Wind Precip. Elev Updated Type